Time;durP1;ratioP1;P1;durP2;ratioP2;P2;SDS_P1;SDS_P2;PMS_P1;PMS_P2;Temp;Humidity;BMP_temperature;BMP_pressure;BME280_temperature;BME280_humidity;BME280_pressure;Samples;Min_cycle;Max_cycle;Signal;HPM_P1;HPM_P2
2023/03/28 00:02:03;;;;;;;1.80;1.70;;;2.10;98.20;;;;;;5010223;28;20545;-72
2023/03/28 00:04:30;;;;;;;1.60;1.50;;;2.10;98.20;;;;;;5025608;28;21091;-73
2023/03/28 00:06:57;;;;;;;1.77;1.67;;;2.10;98.20;;;;;;5018163;28;20475;-72
2023/03/28 00:09:24;;;;;;;1.60;1.50;;;2.10;98.20;;;;;;5027356;28;20489;-72
2023/03/28 00:11:51;;;;;;;1.67;1.57;;;2.10;98.20;;;;;;5016772;28;20909;-72
2023/03/28 00:14:18;;;;;;;1.60;1.40;;;2.10;98.20;;;;;;5028079;28;20491;-72
2023/03/28 00:16:46;;;;;;;1.60;1.50;;;2.10;98.20;;;;;;5019432;28;20964;-72
2023/03/28 00:19:16;;;;;;;1.60;1.50;;;2.10;98.20;;;;;;5028621;28;20884;-72
2023/03/28 00:21:46;;;;;;;1.60;1.50;;;2.00;98.20;;;;;;5017020;28;20471;-72
2023/03/28 00:24:14;;;;;;;1.60;1.50;;;2.00;98.20;;;;;;5028063;28;20464;-72
2023/03/28 00:26:43;;;;;;;1.60;1.50;;;2.00;98.20;;;;;;5019316;28;20483;-75
2023/03/28 00:29:14;;;;;;;1.60;1.50;;;2.00;98.20;;;;;;5028530;28;20487;-74
2023/03/28 00:31:41;;;;;;;1.60;1.50;;;2.00;98.20;;;;;;5017845;28;20479;-74
2023/03/28 00:34:09;;;;;;;1.60;1.50;;;1.90;98.20;;;;;;5028692;28;20455;-74
2023/03/28 00:36:37;;;;;;;1.80;1.70;;;1.90;98.20;;;;;;5019058;28;21019;-74
2023/03/28 00:39:05;;;;;;;1.60;1.50;;;1.90;98.20;;;;;;5027666;28;20493;-75
2023/03/28 00:41:35;;;;;;;1.70;1.60;;;1.90;98.20;;;;;;5018174;28;20491;-75
2023/03/28 00:44:02;;;;;;;1.60;1.50;;;1.90;98.20;;;;;;5029043;28;20459;-75
2023/03/28 00:46:35;;;;;;;1.80;1.70;;;1.90;98.20;;;;;;5016479;28;21067;-73
2023/03/28 00:49:05;;;;;;;1.73;1.63;;;1.80;98.20;;;;;;5026016;28;20509;-74
2023/03/28 00:51:37;;;;;;;1.70;1.60;;;1.90;98.20;;;;;;5018341;28;20887;-75
2023/03/28 00:54:07;;;;;;;1.60;1.50;;;1.80;98.20;;;;;;5028865;28;20546;-74
2023/03/28 00:56:37;;;;;;;1.70;1.60;;;1.80;98.20;;;;;;5017748;28;20862;-74
2023/03/28 00:59:07;;;;;;;1.70;1.60;;;1.80;98.20;;;;;;5024651;28;20484;-73
2023/03/28 01:01:35;;;;;;;1.70;1.60;;;1.80;98.20;;;;;;5015316;28;20490;-72
2023/03/28 01:04:02;;;;;;;1.80;1.70;;;1.80;98.20;;;;;;5024855;28;20467;-73
2023/03/28 01:06:32;;;;;;;1.60;1.43;;;1.80;98.20;;;;;;5017345;28;20558;-75
2023/03/28 01:09:03;;;;;;;1.70;1.60;;;1.80;98.20;;;;;;5025420;28;20974;-74
2023/03/28 01:11:31;;;;;;;1.60;1.50;;;1.80;98.20;;;;;;5016340;28;20493;-74
2023/03/28 01:14:01;;;;;;;1.80;1.70;;;1.80;98.20;;;;;;5025061;28;20469;-75
2023/03/28 01:16:29;;;;;;;1.70;1.60;;;1.70;98.20;;;;;;5013532;28;21020;-75
2023/03/28 01:19:01;;;;;;;1.80;1.70;;;1.70;98.20;;;;;;5025239;28;20479;-74
2023/03/28 01:21:59;;;;;;;1.60;1.50;;;1.70;98.20;;;;;;5016184;28;20572;-74
2023/03/28 01:25:16;;;;;;;1.70;1.60;;;1.70;98.20;;;;;;5024104;28;20525;-74
2023/03/28 01:27:50;;;;;;;1.80;1.70;;;1.70;98.20;;;;;;4972566;28;20470;-75
2023/03/28 01:30:56;;;;;;;1.70;1.60;;;1.70;98.20;;;;;;5024894;28;20462;-74
2023/03/28 01:33:58;;;;;;;1.60;1.50;;;1.70;98.20;;;;;;4996050;28;20966;-73
2023/03/28 01:37:00;;;;;;;1.60;1.50;;;1.70;98.20;;;;;;5015009;28;20491;-75
2023/03/28 01:39:40;;;;;;;1.70;1.60;;;1.70;98.20;;;;;;5020894;28;20549;-74
2023/03/28 01:42:15;;;;;;;1.70;1.60;;;1.60;98.20;;;;;;5013410;28;20951;-74
2023/03/28 01:44:48;;;;;;;1.60;1.50;;;1.60;98.20;;;;;;5024315;28;20458;-75
2023/03/28 01:47:19;;;;;;;1.60;1.50;;;1.60;98.20;;;;;;5013401;28;20498;-75
2023/03/28 01:49:52;;;;;;;1.70;1.60;;;1.60;98.20;;;;;;5022707;28;21020;-73
2023/03/28 01:52:27;;;;;;;1.70;1.60;;;1.60;98.20;;;;;;5001415;28;20530;-74
2023/03/28 01:55:00;;;;;;;1.87;1.77;;;1.60;98.20;;;;;;5021093;28;20467;-74
2023/03/28 01:57:34;;;;;;;1.80;1.70;;;1.50;98.20;;;;;;5004765;28;20514;-74
2023/03/28 02:00:10;;;;;;;1.80;1.70;;;1.50;98.20;;;;;;5023267;28;20487;-73
2023/03/28 02:02:41;;;;;;;1.60;1.50;;;1.50;98.20;;;;;;5003773;28;20485;-73
2023/03/28 02:05:11;;;;;;;1.70;1.60;;;1.50;98.20;;;;;;5020121;28;20463;-75
2023/03/28 02:07:40;;;;;;;1.60;1.50;;;1.50;98.20;;;;;;5015066;28;20574;-75
2023/03/28 02:10:10;;;;;;;1.70;1.60;;;1.50;98.20;;;;;;5022384;28;20969;-76
2023/03/28 02:12:40;;;;;;;1.70;1.60;;;1.40;98.20;;;;;;5009804;28;20492;-75
2023/03/28 02:15:12;;;;;;;1.80;1.70;;;1.40;98.20;;;;;;5024346;28;20521;-75
2023/03/28 02:17:42;;;;;;;1.60;1.50;;;1.30;98.20;;;;;;5005786;28;20506;-75
2023/03/28 02:20:10;;;;;;;1.70;1.60;;;1.30;98.20;;;;;;5024982;28;20455;-75
2023/03/28 02:22:44;;;;;;;1.70;1.60;;;1.30;98.20;;;;;;5005752;28;20483;-75
2023/03/28 02:25:11;;;;;;;1.70;1.60;;;1.30;98.20;;;;;;5045059;23;20588;-74
2023/03/28 02:27:39;;;;;;;1.70;1.60;;;1.30;98.20;;;;;;5030568;28;20637;-74
2023/03/28 02:30:08;;;;;;;1.80;1.70;;;1.20;98.20;;;;;;5038314;28;20505;-72
2023/03/28 02:32:35;;;;;;;1.70;1.60;;;1.20;98.20;;;;;;5021385;28;20494;-72
2023/03/28 02:35:03;;;;;;;1.70;1.60;;;1.30;98.20;;;;;;5025259;28;20542;-72
2023/03/28 02:37:40;;;;;;;1.70;1.60;;;1.20;98.20;;;;;;5007171;28;20859;-72
2023/03/28 02:40:25;;;;;;;1.70;1.60;;;1.20;98.20;;;;;;5016520;28;20498;-72
2023/03/28 02:43:20;;;;;;;1.73;1.63;;;1.20;98.20;;;;;;5003703;28;20484;-72
2023/03/28 02:45:58;;;;;;;1.70;1.60;;;1.20;98.20;;;;;;5007631;28;20498;-71
2023/03/28 02:48:54;;;;;;;1.70;1.60;;;1.20;98.20;;;;;;5021742;28;20478;-72
2023/03/28 02:51:33;;;;;;;1.70;1.60;;;1.20;98.20;;;;;;5007901;28;20554;-72
2023/03/28 02:54:09;;;;;;;1.80;1.70;;;1.20;98.20;;;;;;5019510;28;20474;-72
2023/03/28 02:56:44;;;;;;;1.70;1.60;;;1.20;98.20;;;;;;5004940;28;20478;-72
2023/03/28 02:59:17;;;;;;;1.70;1.60;;;1.20;98.20;;;;;;5024210;28;20471;-72
2023/03/28 03:01:44;;;;;;;1.70;1.60;;;1.20;98.20;;;;;;5004474;28;20484;-72
2023/03/28 03:04:12;;;;;;;1.70;1.60;;;1.20;98.20;;;;;;5022942;28;20464;-72
2023/03/28 03:06:39;;;;;;;1.87;1.77;;;1.20;98.20;;;;;;5008224;28;20490;-73
2023/03/28 03:09:07;;;;;;;1.70;1.60;;;1.20;98.20;;;;;;5017511;28;20472;-72
2023/03/28 03:11:34;;;;;;;1.73;1.63;;;1.20;98.20;;;;;;5007213;28;20826;-72
2023/03/28 03:14:02;;;;;;;1.70;1.60;;;1.10;98.20;;;;;;5019117;28;20460;-72
2023/03/28 03:16:29;;;;;;;1.70;1.60;;;1.10;98.20;;;;;;5005648;28;20479;-72
2023/03/28 03:18:56;;;;;;;1.70;1.60;;;1.10;98.20;;;;;;5024951;28;20455;-72
2023/03/28 03:21:24;;;;;;;1.80;1.70;;;1.00;98.20;;;;;;5013234;28;20479;-73
2023/03/28 03:23:50;;;;;;;1.70;1.60;;;1.00;98.20;;;;;;5017197;28;20456;-72
2023/03/28 03:26:17;;;;;;;1.70;1.60;;;1.00;98.20;;;;;;5015246;28;20480;-71
2023/03/28 03:28:44;;;;;;;1.70;1.60;;;1.00;98.20;;;;;;5023493;28;20467;-72
2023/03/28 03:31:12;;;;;;;1.60;1.50;;;1.00;98.20;;;;;;5012908;28;21034;-72
2023/03/28 03:33:40;;;;;;;1.70;1.60;;;0.90;98.20;;;;;;5016724;28;20459;-72
2023/03/28 03:36:11;;;;;;;1.70;1.60;;;0.90;98.20;;;;;;5017332;28;20488;-71
2023/03/28 03:38:38;;;;;;;1.70;1.60;;;0.90;98.20;;;;;;5020322;28;20486;-72
2023/03/28 03:41:05;;;;;;;1.80;1.70;;;0.90;98.20;;;;;;5011017;28;20465;-73
2023/03/28 03:43:33;;;;;;;1.63;1.53;;;0.90;98.20;;;;;;5015817;28;20467;-72
2023/03/28 03:46:01;;;;;;;1.70;1.60;;;0.90;98.20;;;;;;5012201;28;20552;-72
2023/03/28 03:48:29;;;;;;;1.70;1.60;;;0.80;98.20;;;;;;5018303;28;20463;-72
2023/03/28 03:50:55;;;;;;;1.80;1.70;;;0.80;98.20;;;;;;5006054;28;20510;-72
2023/03/28 03:53:22;;;;;;;1.70;1.60;;;0.80;98.20;;;;;;5013671;28;20970;-73
2023/03/28 03:55:49;;;;;;;1.60;1.50;;;0.80;98.20;;;;;;5013985;28;20494;-73
2023/03/28 03:58:17;;;;;;;1.70;1.60;;;0.80;98.20;;;;;;5019803;28;20464;-73
2023/03/28 04:00:45;;;;;;;1.70;1.60;;;0.80;98.20;;;;;;5024615;28;20464;-73
2023/03/28 04:03:12;;;;;;;1.70;1.60;;;0.80;98.20;;;;;;4987677;28;20484;-73
2023/03/28 04:05:40;;;;;;;1.70;1.60;;;0.80;98.20;;;;;;5017579;28;20491;-73
2023/03/28 04:08:06;;;;;;;1.93;1.83;;;0.80;98.20;;;;;;5004324;28;20484;-74
2023/03/28 04:10:33;;;;;;;1.60;1.50;;;0.80;98.20;;;;;;5025013;28;20474;-73
2023/03/28 04:13:00;;;;;;;1.90;1.80;;;0.80;98.20;;;;;;5007402;28;20518;-74
2023/03/28 04:15:27;;;;;;;1.70;1.60;;;0.80;98.20;;;;;;5016656;28;20486;-75
2023/03/28 04:17:55;;;;;;;1.80;1.70;;;0.80;98.20;;;;;;5006442;28;20497;-74
2023/03/28 04:20:23;;;;;;;1.90;1.80;;;0.80;98.20;;;;;;5019938;28;20896;-77
2023/03/28 04:22:52;;;;;;;1.70;1.60;;;0.80;98.20;;;;;;5010401;28;20487;-74
2023/03/28 04:25:19;;;;;;;1.80;1.70;;;0.80;98.20;;;;;;5021757;28;20495;-75
2023/03/28 04:27:47;;;;;;;1.70;1.60;;;0.80;98.20;;;;;;5012583;28;20486;-73
2023/03/28 04:30:14;;;;;;;1.70;1.60;;;0.80;98.20;;;;;;5014065;28;20539;-73
2023/03/28 04:32:41;;;;;;;1.70;1.60;;;0.80;98.20;;;;;;5008261;28;21001;-74
2023/03/28 04:35:10;;;;;;;1.70;1.60;;;0.80;98.20;;;;;;5013619;28;20487;-73
2023/03/28 04:37:36;;;;;;;1.90;1.80;;;0.80;98.20;;;;;;5007791;28;20487;-73
2023/03/28 04:40:09;;;;;;;1.80;1.70;;;0.80;98.20;;;;;;5010189;28;20991;-74
2023/03/28 04:42:36;;;;;;;1.80;1.70;;;0.80;98.20;;;;;;5009094;28;20952;-73
2023/03/28 04:45:05;;;;;;;1.70;1.60;;;0.80;98.20;;;;;;5016118;28;20486;-73
2023/03/28 04:47:31;;;;;;;1.77;1.67;;;0.80;98.20;;;;;;5005988;28;20483;-74
2023/03/28 04:49:58;;;;;;;1.90;1.80;;;0.80;98.20;;;;;;5013094;28;20928;-74
2023/03/28 04:52:25;;;;;;;1.70;1.60;;;0.70;98.20;;;;;;5003189;28;20490;-73
2023/03/28 04:54:52;;;;;;;1.80;1.70;;;0.70;98.20;;;;;;5016337;28;20495;-73
2023/03/28 04:57:20;;;;;;;1.80;1.70;;;0.80;98.20;;;;;;5008469;28;20498;-73
2023/03/28 04:59:47;;;;;;;1.70;1.60;;;0.70;98.20;;;;;;5015913;28;20573;-73
2023/03/28 05:02:15;;;;;;;1.70;1.60;;;0.70;98.20;;;;;;5007480;28;20770;-73
2023/03/28 05:04:42;;;;;;;1.80;1.70;;;0.70;98.20;;;;;;5014244;28;20495;-74
2023/03/28 05:07:08;;;;;;;1.83;1.73;;;0.70;98.20;;;;;;5006667;28;20511;-73
2023/03/28 05:09:36;;;;;;;1.83;1.73;;;0.70;98.20;;;;;;5016719;28;20470;-73
2023/03/28 05:12:03;;;;;;;1.70;1.60;;;0.60;98.20;;;;;;5004277;28;20483;-74
2023/03/28 05:14:32;;;;;;;1.80;1.70;;;0.60;98.20;;;;;;5016211;28;20490;-73
2023/03/28 05:16:59;;;;;;;1.90;1.80;;;0.60;98.20;;;;;;5004244;28;20955;-73
2023/03/28 05:19:25;;;;;;;1.70;1.60;;;0.60;98.20;;;;;;5019050;28;20933;-74
2023/03/28 05:21:52;;;;;;;1.73;1.63;;;0.60;98.20;;;;;;5006764;28;20483;-73
2023/03/28 05:24:19;;;;;;;1.70;1.60;;;0.60;98.20;;;;;;5022057;28;20475;-73
2023/03/28 05:26:46;;;;;;;1.90;1.80;;;0.60;98.20;;;;;;5009505;28;20478;-73
2023/03/28 05:29:12;;;;;;;1.70;1.60;;;0.60;98.20;;;;;;5019861;28;20463;-73
2023/03/28 05:31:41;;;;;;;1.70;1.60;;;0.60;98.20;;;;;;5005500;28;20486;-74
2023/03/28 05:34:07;;;;;;;1.70;1.60;;;0.60;98.20;;;;;;5022278;28;20471;-73
2023/03/28 05:36:34;;;;;;;1.70;1.60;;;0.60;98.20;;;;;;5009601;28;20483;-74
2023/03/28 05:39:01;;;;;;;1.90;1.80;;;0.60;98.20;;;;;;5020528;28;20541;-73
2023/03/28 05:41:28;;;;;;;1.80;1.70;;;0.60;98.20;;;;;;5012455;28;20479;-74
2023/03/28 05:43:55;;;;;;;1.70;1.60;;;0.60;98.20;;;;;;5018600;28;20462;-73
2023/03/28 05:46:22;;;;;;;1.70;1.60;;;0.60;98.20;;;;;;5007052;28;21185;-73
2023/03/28 05:48:50;;;;;;;1.70;1.60;;;0.60;98.20;;;;;;5022911;28;20471;-73
2023/03/28 05:51:17;;;;;;;1.70;1.60;;;0.60;98.20;;;;;;5008777;28;20501;-73
2023/03/28 05:53:44;;;;;;;1.70;1.60;;;0.60;98.20;;;;;;5028730;28;20466;-73
2023/03/28 05:56:10;;;;;;;1.70;1.60;;;0.60;98.20;;;;;;5012255;28;20489;-73
2023/03/28 05:58:39;;;;;;;1.80;1.70;;;0.60;98.20;;;;;;5019568;28;20468;-73
2023/03/28 06:01:06;;;;;;;1.70;1.60;;;0.70;98.20;;;;;;5007589;28;20471;-73
2023/03/28 06:03:38;;;;;;;1.73;1.63;;;0.70;98.20;;;;;;5020506;28;20471;-73
2023/03/28 06:06:08;;;;;;;1.70;1.60;;;0.70;98.20;;;;;;5004883;28;20889;-73
2023/03/28 06:08:35;;;;;;;1.80;1.70;;;0.70;98.20;;;;;;5018821;28;20789;-73
2023/03/28 06:11:02;;;;;;;1.70;1.60;;;0.80;98.20;;;;;;5009316;28;20471;-74
2023/03/28 06:13:29;;;;;;;1.70;1.60;;;0.80;98.20;;;;;;5023384;28;20623;-74
2023/03/28 06:15:55;;;;;;;1.70;1.60;;;0.90;98.20;;;;;;5008198;28;20494;-73
2023/03/28 06:18:22;;;;;;;1.70;1.60;;;1.00;98.20;;;;;;5020171;28;20467;-74
2023/03/28 06:20:50;;;;;;;1.63;1.53;;;1.30;98.20;;;;;;5008687;28;20466;-73
2023/03/28 06:23:18;;;;;;;1.70;1.60;;;1.50;98.20;;;;;;5019041;28;20948;-72
2023/03/28 06:25:45;;;;;;;1.70;1.60;;;1.70;98.20;;;;;;5017065;28;20499;-72
2023/03/28 06:28:12;;;;;;;1.60;1.50;;;1.90;98.20;;;;;;5011997;28;20990;-71
2023/03/28 06:30:39;;;;;;;1.70;1.60;;;2.10;98.20;;;;;;5012964;28;20462;-72
2023/03/28 06:33:06;;;;;;;1.60;1.50;;;2.40;98.20;;;;;;5008661;28;20510;-71
2023/03/28 06:35:34;;;;;;;1.70;1.60;;;2.50;98.20;;;;;;5019434;28;20494;-71
2023/03/28 06:38:00;;;;;;;1.60;1.50;;;2.70;98.20;;;;;;5010816;28;20479;-71
2023/03/28 06:40:28;;;;;;;1.70;1.60;;;2.90;98.20;;;;;;5017746;28;20468;-72
2023/03/28 06:42:55;;;;;;;1.60;1.50;;;3.10;98.20;;;;;;5010228;28;20470;-71
2023/03/28 06:45:22;;;;;;;1.60;1.50;;;3.30;98.20;;;;;;5021010;28;20560;-72
2023/03/28 06:47:50;;;;;;;1.60;1.47;;;3.50;98.20;;;;;;5012433;28;20982;-71
2023/03/28 06:50:17;;;;;;;1.60;1.40;;;3.70;98.20;;;;;;5019254;28;21154;-72
2023/03/28 06:52:44;;;;;;;1.60;1.40;;;3.80;98.20;;;;;;5008313;28;20491;-72
2023/03/28 06:55:11;;;;;;;1.73;1.63;;;3.90;98.20;;;;;;5014974;28;20498;-73
2023/03/28 06:57:40;;;;;;;1.60;1.40;;;4.10;98.20;;;;;;5009386;28;20865;-73
2023/03/28 07:00:08;;;;;;;1.60;1.40;;;4.30;98.20;;;;;;5017771;28;20550;-74
2023/03/28 07:02:35;;;;;;;1.60;1.50;;;4.40;98.20;;;;;;5005709;28;20531;-73
2023/03/28 07:05:02;;;;;;;1.60;1.50;;;4.60;98.20;;;;;;5022160;28;20491;-74
2023/03/28 07:07:28;;;;;;;1.60;1.40;;;4.70;98.20;;;;;;5008708;28;20482;-74
2023/03/28 07:09:55;;;;;;;1.60;1.40;;;4.90;98.20;;;;;;5022141;28;20469;-74
2023/03/28 07:12:22;;;;;;;1.60;1.40;;;5.10;98.20;;;;;;5008073;28;20576;-74
2023/03/28 07:14:50;;;;;;;1.60;1.40;;;5.20;98.20;;;;;;5023661;28;20506;-74
2023/03/28 07:17:17;;;;;;;1.60;1.40;;;5.30;98.20;;;;;;5010730;28;20943;-74
2023/03/28 07:19:44;;;;;;;1.60;1.30;;;5.40;98.20;;;;;;5023041;28;20463;-75
2023/03/28 07:22:11;;;;;;;1.70;1.60;;;5.60;98.20;;;;;;5009789;28;20622;-74
2023/03/28 07:24:38;;;;;;;1.60;1.37;;;5.80;98.20;;;;;;5022932;28;20490;-74
2023/03/28 07:27:05;;;;;;;1.60;1.30;;;6.00;98.20;;;;;;5014884;28;20487;-74
2023/03/28 07:29:32;;;;;;;1.60;1.40;;;6.20;98.20;;;;;;5018447;28;20525;-74
2023/03/28 07:32:00;;;;;;;1.60;1.30;;;6.30;98.20;;;;;;5009408;28;21317;-74
2023/03/28 07:34:26;;;;;;;1.60;1.40;;;6.50;98.20;;;;;;5019220;28;20513;-74
2023/03/28 07:36:53;;;;;;;1.60;1.30;;;6.70;98.20;;;;;;5011020;28;20490;-74
2023/03/28 07:39:21;;;;;;;1.60;1.33;;;6.80;98.20;;;;;;5025531;28;20846;-74
2023/03/28 07:41:48;;;;;;;1.60;1.30;;;7.00;98.20;;;;;;5016700;28;21125;-74
2023/03/28 07:44:15;;;;;;;1.53;1.20;;;7.00;98.20;;;;;;5022763;28;20471;-74
2023/03/28 07:46:42;;;;;;;1.60;1.40;;;7.10;98.20;;;;;;5013773;28;20495;-74
2023/03/28 07:49:11;;;;;;;1.57;1.20;;;7.30;98.20;;;;;;5021705;28;20513;-74
2023/03/28 07:51:38;;;;;;;1.60;1.30;;;7.40;98.20;;;;;;5011763;28;20483;-74
2023/03/28 07:54:06;;;;;;;1.50;1.20;;;7.50;98.20;;;;;;5023073;28;20470;-74
2023/03/28 07:56:33;;;;;;;1.60;1.40;;;7.40;98.20;;;;;;5014593;28;20775;-74
2023/03/28 07:59:00;;;;;;;1.53;1.20;;;7.30;98.20;;;;;;5023125;28;20690;-74
2023/03/28 08:01:27;;;;;;;1.60;1.30;;;7.40;98.20;;;;;;5013683;28;21028;-74
2023/03/28 08:03:54;;;;;;;1.60;1.30;;;7.50;98.20;;;;;;5024896;28;21068;-74
2023/03/28 08:06:24;;;;;;;1.53;1.27;;;7.60;98.20;;;;;;5013497;28;20483;-74
2023/03/28 08:08:51;;;;;;;1.57;1.20;;;7.70;98.20;;;;;;5026891;28;20470;-75
2023/03/28 08:11:18;;;;;;;1.60;1.30;;;7.70;98.20;;;;;;5011498;28;21006;-75
2023/03/28 08:13:44;;;;;;;1.60;1.30;;;7.90;98.20;;;;;;5027182;28;20483;-75
2023/03/28 08:16:11;;;;;;;1.53;1.20;;;8.00;98.20;;;;;;5015173;28;20865;-75
2023/03/28 08:18:38;;;;;;;1.57;1.20;;;8.30;98.20;;;;;;5018524;28;20465;-75
2023/03/28 08:21:05;;;;;;;1.53;1.20;;;8.40;98.20;;;;;;5012679;28;20463;-76
2023/03/28 08:23:33;;;;;;;1.57;1.20;;;8.50;98.20;;;;;;5028307;28;20465;-76
2023/03/28 08:26:03;;;;;;;1.50;1.20;;;8.70;98.20;;;;;;5015711;28;20513;-76
2023/03/28 08:28:32;;;;;;;1.50;1.13;;;8.90;98.20;;;;;;5026584;28;20463;-76
2023/03/28 08:30:58;;;;;;;1.50;1.10;;;9.10;98.20;;;;;;5014407;28;22294;-76
2023/03/28 08:33:27;;;;;;;1.50;1.20;;;9.40;98.20;;;;;;5026026;28;20494;-77
2023/03/28 08:35:54;;;;;;;1.57;1.10;;;9.60;98.00;;;;;;5025489;23;20492;-74
2023/03/28 08:38:22;;;;;;;1.53;1.20;;;9.80;97.00;;;;;;5007587;28;20521;-75
2023/03/28 08:41:00;;;;;;;1.60;1.30;;;10.00;96.40;;;;;;5016416;28;20462;-76
2023/03/28 08:43:59;;;;;;;1.53;1.10;;;10.10;94.80;;;;;;5017120;28;20486;-77
2023/03/28 08:46:28;;;;;;;1.57;1.10;;;10.20;93.50;;;;;;5000087;28;20489;-75
2023/03/28 08:48:56;;;;;;;1.57;1.10;;;10.30;93.00;;;;;;4992407;28;20468;-75
2023/03/28 08:51:27;;;;;;;1.60;1.20;;;10.40;93.60;;;;;;4988943;28;20483;-75
2023/03/28 08:54:03;;;;;;;1.50;1.10;;;10.60;94.90;;;;;;5001913;28;20468;-75
2023/03/28 08:56:33;;;;;;;1.53;1.00;;;10.80;93.50;;;;;;4987128;28;20496;-74
2023/03/28 08:59:06;;;;;;;1.50;1.10;;;11.10;90.50;;;;;;4993251;28;20475;-75
2023/03/28 09:01:35;;;;;;;1.53;1.10;;;11.30;90.30;;;;;;4989786;28;20516;-74
2023/03/28 09:04:03;;;;;;;1.53;1.10;;;11.20;86.90;;;;;;5003347;28;20492;-75
2023/03/28 09:06:37;;;;;;;1.50;1.00;;;11.10;86.30;;;;;;4991319;28;21042;-73
2023/03/28 09:09:25;;;;;;;1.57;1.10;;;10.90;86.20;;;;;;4994334;28;21043;-74
2023/03/28 09:12:03;;;;;;;1.53;1.10;;;10.70;87.20;;;;;;4988592;28;21058;-75
2023/03/28 09:14:58;;;;;;;1.60;1.17;;;10.50;86.60;;;;;;4999256;28;20468;-74
2023/03/28 09:17:34;;;;;;;1.50;1.00;;;10.50;86.10;;;;;;4990962;28;20510;-74
2023/03/28 09:20:11;;;;;;;1.50;1.00;;;10.50;86.80;;;;;;5002423;28;20555;-75
2023/03/28 09:22:48;;;;;;;1.53;1.10;;;10.40;84.10;;;;;;4996406;28;20876;-75
2023/03/28 09:25:26;;;;;;;1.50;1.00;;;10.30;85.60;;;;;;5004120;28;20459;-74
2023/03/28 09:27:59;;;;;;;1.57;1.10;;;10.40;85.90;;;;;;4973816;28;21065;-74
2023/03/28 09:30:31;;;;;;;1.50;1.10;;;10.50;87.20;;;;;;5004246;28;20464;-74
2023/03/28 09:33:03;;;;;;;1.50;1.00;;;10.70;87.80;;;;;;4990374;28;20967;-75
2023/03/28 09:35:31;;;;;;;1.50;1.10;;;10.90;84.90;;;;;;5001120;28;20459;-74
2023/03/28 09:38:03;;;;;;;1.53;1.00;;;11.00;82.40;;;;;;4992048;28;20484;-73
2023/03/28 09:40:31;;;;;;;1.57;1.20;;;11.20;81.00;;;;;;5002476;28;20526;-74
2023/03/28 09:43:06;;;;;;;1.50;1.00;;;11.40;84.00;;;;;;5001899;28;20491;-75
2023/03/28 09:45:43;;;;;;;1.60;1.10;;;11.70;80.60;;;;;;5002648;28;20466;-74
2023/03/28 09:48:15;;;;;;;1.53;1.10;;;11.70;79.50;;;;;;4990429;28;20507;-75
2023/03/28 09:50:42;;;;;;;1.57;1.20;;;11.60;77.00;;;;;;5002282;28;21145;-74
2023/03/28 09:53:20;;;;;;;1.50;1.10;;;11.40;79.10;;;;;;4988010;28;20486;-74
2023/03/28 09:55:48;;;;;;;1.50;1.10;;;11.10;79.10;;;;;;5000894;28;20484;-75
2023/03/28 09:58:17;;;;;;;1.50;1.00;;;11.10;79.70;;;;;;4986740;28;20480;-74
2023/03/28 10:00:48;;;;;;;1.50;0.97;;;11.20;78.30;;;;;;5002394;28;20484;-74
2023/03/28 10:03:28;;;;;;;1.50;1.00;;;11.30;78.70;;;;;;4981226;28;20487;-74
2023/03/28 10:05:55;;;;;;;1.50;1.10;;;11.50;78.90;;;;;;4989048;28;20567;-74
2023/03/28 10:08:25;;;;;;;1.50;1.00;;;11.60;77.80;;;;;;4997020;28;20468;-74
2023/03/28 10:11:05;;;;;;;1.50;1.00;;;11.80;78.10;;;;;;4991607;28;20986;-75
2023/03/28 10:13:41;;;;;;;1.50;1.00;;;11.90;77.50;;;;;;4994638;28;20464;-74
2023/03/28 10:16:11;;;;;;;1.50;1.00;;;12.10;78.90;;;;;;4989979;28;20649;-74
2023/03/28 10:18:40;;;;;;;1.50;1.10;;;12.20;75.90;;;;;;4999139;28;20946;-74
2023/03/28 10:21:23;;;;;;;1.50;1.00;;;12.20;76.50;;;;;;4987080;28;20471;-75
2023/03/28 10:23:58;;;;;;;1.50;0.90;;;12.10;76.20;;;;;;4992902;28;20488;-75
2023/03/28 10:26:27;;;;;;;1.50;1.00;;;12.00;75.50;;;;;;4989158;28;20492;-75
2023/03/28 10:29:00;;;;;;;1.50;1.00;;;11.90;77.40;;;;;;4997398;28;20914;-75
2023/03/28 10:31:30;;;;;;;1.50;1.00;;;11.80;77.30;;;;;;4985374;28;20495;-75
2023/03/28 10:33:58;;;;;;;1.50;1.10;;;11.80;77.30;;;;;;4995237;28;20570;-76
2023/03/28 10:36:30;;;;;;;1.50;0.90;;;11.70;78.00;;;;;;4988676;28;20556;-76
2023/03/28 10:38:57;;;;;;;1.50;1.00;;;11.70;78.40;;;;;;4996621;28;20787;-76
2023/03/28 10:41:25;;;;;;;1.50;1.00;;;11.90;78.10;;;;;;4985778;28;20473;-76
2023/03/28 10:43:53;;;;;;;1.50;1.00;;;12.00;77.80;;;;;;5000792;28;20492;-78
2023/03/28 10:46:24;;;;;;;1.50;1.00;;;12.20;78.40;;;;;;4987448;28;20481;-76
2023/03/28 10:48:56;;;;;;;1.50;1.00;;;12.50;77.30;;;;;;4997242;28;20495;-75
2023/03/28 10:51:25;;;;;;;1.50;1.00;;;12.50;74.60;;;;;;4984343;28;20477;-75
2023/03/28 10:54:22;;;;;;;3.10;2.17;;;12.50;75.80;;;;;;4991162;28;20471;-73
2023/03/28 10:57:00;;;;;;;1.50;1.00;;;12.50;75.70;;;;;;4987229;28;20827;-74
2023/03/28 10:59:51;;;;;;;1.50;1.10;;;12.10;72.00;;;;;;4999347;28;20463;-72
2023/03/28 11:02:43;;;;;;;1.50;0.90;;;11.80;73.70;;;;;;4978898;28;20488;-73
2023/03/28 11:05:28;;;;;;;1.50;1.00;;;11.80;73.30;;;;;;5000256;28;20864;-73
2023/03/28 11:08:02;;;;;;;1.50;1.00;;;11.80;74.40;;;;;;4990834;28;20571;-73
2023/03/28 11:10:37;;;;;;;1.50;1.00;;;11.70;73.80;;;;;;4999850;28;20505;-73
2023/03/28 11:13:12;;;;;;;1.50;1.10;;;11.70;74.20;;;;;;4980724;28;20490;-73
2023/03/28 11:15:48;;;;;;;1.50;1.00;;;11.70;73.70;;;;;;5001116;28;20467;-74
2023/03/28 11:18:31;;;;;;;1.50;1.10;;;11.70;74.20;;;;;;4983758;28;20487;-73
2023/03/28 11:21:24;;;;;;;1.50;1.00;;;11.70;73.70;;;;;;4990263;28;20793;-73
2023/03/28 11:24:01;;;;;;;1.50;1.00;;;11.80;73.90;;;;;;4996978;28;20874;-73
2023/03/28 11:26:38;;;;;;;1.50;1.00;;;12.00;74.40;;;;;;4986083;28;20791;-72
2023/03/28 11:29:22;;;;;;;1.50;1.10;;;12.10;75.50;;;;;;4989200;28;20464;-73
2023/03/28 11:32:00;;;;;;;1.60;1.20;;;12.10;74.50;;;;;;4984363;28;20491;-73
2023/03/28 11:34:32;;;;;;;1.50;1.00;;;12.30;75.80;;;;;;4998851;28;20905;-72
2023/03/28 11:37:06;;;;;;;1.50;1.00;;;12.20;71.30;;;;;;4981482;28;20567;-73
2023/03/28 11:39:41;;;;;;;1.50;1.00;;;12.00;71.20;;;;;;4997689;28;21321;-74
2023/03/28 11:42:13;;;;;;;1.50;1.10;;;11.80;71.50;;;;;;4986607;28;20675;-74
2023/03/28 11:44:45;;;;;;;1.50;1.00;;;11.50;70.50;;;;;;4993820;28;21103;-74
2023/03/28 11:47:16;;;;;;;1.50;1.00;;;11.20;72.50;;;;;;4987841;28;20484;-74
2023/03/28 11:49:48;;;;;;;1.50;1.00;;;11.20;73.40;;;;;;4991935;28;20468;-74
2023/03/28 11:52:20;;;;;;;1.50;1.00;;;11.30;74.60;;;;;;4979678;28;20491;-73
2023/03/28 11:54:50;;;;;;;1.50;1.03;;;11.50;74.30;;;;;;4998879;28;20463;-73
2023/03/28 11:57:27;;;;;;;1.50;1.00;;;11.60;72.20;;;;;;4985053;28;20947;-73
2023/03/28 11:59:57;;;;;;;1.50;1.00;;;11.70;71.80;;;;;;5001080;28;20467;-74
2023/03/28 12:02:38;;;;;;;1.50;1.00;;;11.60;72.20;;;;;;4982996;28;20495;-76
2023/03/28 12:05:17;;;;;;;1.50;1.00;;;11.90;72.10;;;;;;5000647;28;20480;-75
2023/03/28 12:07:50;;;;;;;1.50;1.00;;;12.30;72.30;;;;;;4980257;28;21028;-73
2023/03/28 12:10:22;;;;;;;1.50;1.00;;;12.60;70.80;;;;;;4981923;28;20919;-72
2023/03/28 12:12:58;;;;;;;1.50;1.00;;;12.90;70.50;;;;;;4979822;28;20986;-73
2023/03/28 12:15:33;;;;;;;1.50;0.90;;;13.10;68.80;;;;;;4992822;28;21616;-73
2023/03/28 12:18:03;;;;;;;1.50;1.00;;;13.40;69.20;;;;;;4980668;28;20483;-73
2023/03/28 12:20:37;;;;;;;1.50;1.10;;;13.40;67.60;;;;;;4989244;28;20471;-72
2023/03/28 12:23:11;;;;;;;1.50;0.90;;;13.30;63.60;;;;;;4987895;28;20622;-74
2023/03/28 12:25:46;;;;;;;1.50;1.10;;;13.20;65.90;;;;;;4999584;28;20463;-73
2023/03/28 12:28:22;;;;;;;1.50;0.90;;;13.40;65.90;;;;;;4984507;28;20863;-73
2023/03/28 12:30:58;;;;;;;1.50;0.90;;;13.10;66.80;;;;;;4992693;28;20484;-73
2023/03/28 12:33:36;;;;;;;1.50;1.00;;;13.10;68.30;;;;;;4995592;28;20501;-74
2023/03/28 12:36:16;;;;;;;1.50;1.00;;;13.10;66.80;;;;;;4993812;28;20500;-73
2023/03/28 12:38:52;;;;;;;1.50;1.10;;;13.20;68.00;;;;;;4991850;28;20463;-74
2023/03/28 12:41:23;;;;;;;1.50;1.00;;;13.50;69.40;;;;;;4985414;28;20532;-74
2023/03/28 12:43:53;;;;;;;1.50;1.00;;;13.70;68.50;;;;;;4992327;28;20492;-74
2023/03/28 12:46:23;;;;;;;1.50;0.97;;;13.80;68.30;;;;;;4984956;28;20495;-74
2023/03/28 12:48:54;;;;;;;1.50;1.00;;;13.90;67.70;;;;;;4999213;28;20492;-76
2023/03/28 12:51:29;;;;;;;1.50;1.00;;;14.00;67.90;;;;;;4984013;28;20894;-73
2023/03/28 12:54:07;;;;;;;1.50;1.00;;;13.90;67.80;;;;;;4995491;28;21010;-74
2023/03/28 12:56:34;;;;;;;2.13;1.93;;;13.70;65.70;;;;;;4993941;28;20500;-75
2023/03/28 12:59:15;;;;;;;1.50;0.90;;;13.20;65.60;;;;;;4998488;28;20471;-73
2023/03/28 13:01:47;;;;;;;1.50;1.00;;;13.20;68.00;;;;;;4985989;28;21294;-73
2023/03/28 13:04:25;;;;;;;1.50;1.00;;;13.30;68.50;;;;;;4999198;28;20541;-74
2023/03/28 13:07:03;;;;;;;1.50;0.90;;;13.60;70.60;;;;;;4983439;28;20480;-74
2023/03/28 13:09:45;;;;;;;1.50;1.00;;;13.80;68.90;;;;;;4999023;28;20894;-73
2023/03/28 13:12:29;;;;;;;1.47;1.00;;;13.70;67.80;;;;;;4983245;28;21136;-73
2023/03/28 13:15:00;;;;;;;1.50;1.00;;;13.60;69.10;;;;;;4993451;28;20484;-73